AXM6185 WBGR-WBGG
Flight info
| Callsign | AXM6185 |
|---|---|
| Flight time | 0h 47m |
| Altitude | 32000 |
| Route | BIPAS1B BIPAS DCT SARVO G580 PILAX DCT LUTMO LUTMO1A |
| Aircraft | A320/M-SDE3FGHIRWY/LB1 |
Departure
| Time | 2026-04-29 17:02 |
|---|---|
| Airport | Miri Airport (WBGR) |
Arrival
| Time | 2026-04-29 17:49 |
|---|---|
| Airport | Kuching International Airport (WBGG) |
| Time | Latitude | Longitude | Altitude | Speed | Heading |
|---|---|---|---|---|---|
| 2026-04-29 16:36 | 4.32515 | 113.98438 | 61 ft | 0 kts | 295° |
| 2026-04-29 16:53 | 4.32514 | 113.98442 | 62 ft | 3 kts | 295° |
| 2026-04-29 16:53 | 4.32502 | 113.98466 | 60 ft | 4 kts | 295° |
| 2026-04-29 16:53 | 4.32491 | 113.98490 | 53 ft | 2 kts | 295° |
| 2026-04-29 16:54 | 4.32481 | 113.98509 | 58 ft | 4 kts | 316° |
| 2026-04-29 16:54 | 4.32460 | 113.98518 | 57 ft | 4 kts | 17° |
| 2026-04-29 16:54 | 4.32437 | 113.98508 | 58 ft | 4 kts | 25° |
| 2026-04-29 16:54 | 4.32425 | 113.98503 | 53 ft | 0 kts | 25° |
| 2026-04-29 16:56 | 4.32427 | 113.98504 | 53 ft | 3 kts | 25° |
| 2026-04-29 16:57 | 4.32465 | 113.98532 | 57 ft | 10 kts | 57° |
| 2026-04-29 16:57 | 4.32459 | 113.98586 | 60 ft | 6 kts | 99° |
| 2026-04-29 16:57 | 4.32471 | 113.98615 | 58 ft | 3 kts | 43° |
| 2026-04-29 16:57 | 4.32487 | 113.98626 | 62 ft | 2 kts | 32° |
| 2026-04-29 16:58 | 4.32506 | 113.98634 | 64 ft | 5 kts | 24° |
| 2026-04-29 16:58 | 4.32545 | 113.98653 | 62 ft | 7 kts | 25° |
| 2026-04-29 16:58 | 4.32610 | 113.98683 | 62 ft | 14 kts | 25° |
| 2026-04-29 16:58 | 4.32708 | 113.98728 | 63 ft | 17 kts | 25° |
| 2026-04-29 16:59 | 4.32813 | 113.98782 | 62 ft | 17 kts | 40° |
| 2026-04-29 16:59 | 4.32806 | 113.98880 | 65 ft | 13 kts | 118° |
| 2026-04-29 16:59 | 4.32799 | 113.98957 | 67 ft | 10 kts | 63° |
| 2026-04-29 16:59 | 4.32851 | 113.98991 | 64 ft | 9 kts | 23° |
| 2026-04-29 17:00 | 4.32928 | 113.99027 | 69 ft | 14 kts | 25° |
| 2026-04-29 17:00 | 4.33027 | 113.99073 | 61 ft | 18 kts | 25° |
| 2026-04-29 17:00 | 4.33152 | 113.99131 | 66 ft | 21 kts | 25° |
| 2026-04-29 17:00 | 4.33275 | 113.99182 | 58 ft | 18 kts | 8° |
| 2026-04-29 17:01 | 4.33376 | 113.99195 | 62 ft | 8 kts | 64° |
| 2026-04-29 17:01 | 4.33363 | 113.99209 | 59 ft | 4 kts | 151° |
| 2026-04-29 17:01 | 4.33330 | 113.99208 | 63 ft | 5 kts | 184° |
| 2026-04-29 17:01 | 4.33301 | 113.99200 | 58 ft | 4 kts | 204° |
| 2026-04-29 17:02 | 4.33158 | 113.99133 | 66 ft | 58 kts | 206° |
| 2026-04-29 17:02 | 4.32578 | 113.98863 | 67 ft | 123 kts | 205° |
| 2026-04-29 17:02 | 4.31651 | 113.98424 | 166 ft | 161 kts | 205° |
| 2026-04-29 17:02 | 4.30734 | 113.97962 | 993 ft | 133 kts | 208° |
| 2026-04-29 17:03 | 4.29880 | 113.97558 | 1342 ft | 145 kts | 203° |
| 2026-04-29 17:03 | 4.28897 | 113.97130 | 1496 ft | 167 kts | 203° |
| 2026-04-29 17:03 | 4.27760 | 113.96626 | 1668 ft | 193 kts | 204° |
| 2026-04-29 17:03 | 4.26410 | 113.96011 | 1687 ft | 226 kts | 204° |
| 2026-04-29 17:04 | 4.24992 | 113.95359 | 2344 ft | 221 kts | 205° |
| 2026-04-29 17:04 | 4.23560 | 113.94698 | 2779 ft | 236 kts | 205° |
| 2026-04-29 17:04 | 4.21992 | 113.93971 | 3120 ft | 261 kts | 205° |
| 2026-04-29 17:04 | 4.20290 | 113.93182 | 3708 ft | 275 kts | 205° |
| 2026-04-29 17:05 | 4.18562 | 113.92381 | 4555 ft | 279 kts | 204° |
| 2026-04-29 17:05 | 4.16790 | 113.91557 | 5416 ft | 283 kts | 204° |
| 2026-04-29 17:05 | 4.14996 | 113.90720 | 6245 ft | 286 kts | 203° |
| 2026-04-29 17:05 | 4.13179 | 113.89872 | 7037 ft | 290 kts | 203° |
| 2026-04-29 17:06 | 4.11339 | 113.89013 | 7832 ft | 293 kts | 203° |
| 2026-04-29 17:06 | 4.09543 | 113.88017 | 8613 ft | 299 kts | 214° |
| 2026-04-29 17:06 | 4.08494 | 113.87113 | 9120 ft | 303 kts | 225° |
| 2026-04-29 17:06 | 4.06893 | 113.84767 | 10109 ft | 310 kts | 245° |
| 2026-04-29 17:07 | 4.06059 | 113.82744 | 10436 ft | 330 kts | 247° |
| 2026-04-29 17:07 | 4.05463 | 113.81271 | 10592 ft | 344 kts | 247° |
| 2026-04-29 17:07 | 4.04261 | 113.78278 | 11321 ft | 354 kts | 248° |
| 2026-04-29 17:07 | 4.03339 | 113.75976 | 11975 ft | 358 kts | 248° |
| 2026-04-29 17:08 | 4.02406 | 113.73651 | 12644 ft | 362 kts | 248° |
| 2026-04-29 17:08 | 4.01461 | 113.71302 | 13316 ft | 365 kts | 248° |
| 2026-04-29 17:08 | 4.00510 | 113.68931 | 13932 ft | 369 kts | 248° |
| 2026-04-29 17:08 | 3.99551 | 113.66533 | 14501 ft | 372 kts | 248° |
| 2026-04-29 17:09 | 3.98580 | 113.64120 | 15078 ft | 375 kts | 247° |
| 2026-04-29 17:09 | 3.97607 | 113.61719 | 15642 ft | 378 kts | 247° |
| 2026-04-29 17:09 | 3.96614 | 113.59267 | 16197 ft | 382 kts | 247° |
| 2026-04-29 17:09 | 3.95614 | 113.56792 | 16748 ft | 385 kts | 247° |
| 2026-04-29 17:10 | 3.94605 | 113.54300 | 17300 ft | 388 kts | 247° |
| 2026-04-29 17:10 | 3.93585 | 113.51783 | 17845 ft | 391 kts | 247° |
| 2026-04-29 17:10 | 3.92559 | 113.49247 | 18354 ft | 395 kts | 247° |
| 2026-04-29 17:10 | 3.91482 | 113.46709 | 18816 ft | 397 kts | 242° |
| 2026-04-29 17:11 | 3.90031 | 113.44354 | 19279 ft | 399 kts | 232° |
| 2026-04-29 17:11 | 3.88377 | 113.42164 | 19748 ft | 401 kts | 231° |
| 2026-04-29 17:11 | 3.86690 | 113.39931 | 20221 ft | 404 kts | 232° |
| 2026-04-29 17:11 | 3.84989 | 113.37675 | 20692 ft | 407 kts | 232° |
| 2026-04-29 17:12 | 3.83281 | 113.35409 | 21154 ft | 409 kts | 232° |
| 2026-04-29 17:12 | 3.81558 | 113.33124 | 21634 ft | 412 kts | 232° |
| 2026-04-29 17:12 | 3.79822 | 113.30823 | 22087 ft | 415 kts | 232° |
| 2026-04-29 17:12 | 3.79258 | 113.30075 | 22236 ft | 416 kts | 232° |
| 2026-04-29 17:13 | 3.76318 | 113.26179 | 23007 ft | 421 kts | 231° |
| 2026-04-29 17:13 | 3.74570 | 113.23863 | 23448 ft | 424 kts | 231° |
| 2026-04-29 17:13 | 3.72785 | 113.21501 | 23818 ft | 427 kts | 231° |
| 2026-04-29 17:13 | 3.70988 | 113.19124 | 24186 ft | 429 kts | 231° |
| 2026-04-29 17:14 | 3.69181 | 113.16734 | 24555 ft | 431 kts | 231° |
| 2026-04-29 17:14 | 3.67367 | 113.14334 | 24920 ft | 433 kts | 231° |
| 2026-04-29 17:14 | 3.65545 | 113.11922 | 25278 ft | 436 kts | 231° |
| 2026-04-29 17:14 | 3.63712 | 113.09496 | 25622 ft | 438 kts | 231° |
| 2026-04-29 17:15 | 3.61871 | 113.07056 | 25960 ft | 440 kts | 231° |
| 2026-04-29 17:15 | 3.60022 | 113.04605 | 26301 ft | 442 kts | 231° |
| 2026-04-29 17:15 | 3.58189 | 113.02173 | 26623 ft | 445 kts | 231° |
| 2026-04-29 17:15 | 3.56323 | 112.99699 | 26951 ft | 447 kts | 231° |
| 2026-04-29 17:16 | 3.54444 | 112.97210 | 27267 ft | 449 kts | 231° |
| 2026-04-29 17:16 | 3.52560 | 112.94717 | 27581 ft | 451 kts | 231° |
| 2026-04-29 17:16 | 3.50664 | 112.92211 | 27893 ft | 452 kts | 231° |
| 2026-04-29 17:16 | 3.48760 | 112.89696 | 28205 ft | 454 kts | 231° |
| 2026-04-29 17:17 | 3.46848 | 112.87169 | 28507 ft | 456 kts | 231° |
| 2026-04-29 17:17 | 3.44930 | 112.84631 | 28802 ft | 458 kts | 231° |
| 2026-04-29 17:17 | 3.43048 | 112.82103 | 29090 ft | 460 kts | 232° |
| 2026-04-29 17:17 | 3.41194 | 112.79481 | 29376 ft | 463 kts | 234° |
| 2026-04-29 17:18 | 3.39379 | 112.76812 | 29649 ft | 465 kts | 234° |
| 2026-04-29 17:18 | 3.37581 | 112.74116 | 29919 ft | 467 kts | 234° |
| 2026-04-29 17:18 | 3.35775 | 112.71405 | 30147 ft | 469 kts | 234° |
| 2026-04-29 17:18 | 3.33953 | 112.68693 | 30377 ft | 470 kts | 234° |
| 2026-04-29 17:19 | 3.32111 | 112.65983 | 30604 ft | 472 kts | 234° |
| 2026-04-29 17:19 | 3.30252 | 112.63273 | 30831 ft | 473 kts | 234° |
| 2026-04-29 17:19 | 3.28408 | 112.60597 | 31049 ft | 474 kts | 234° |
| 2026-04-29 17:19 | 3.26531 | 112.57875 | 31265 ft | 475 kts | 234° |
| 2026-04-29 17:20 | 3.24655 | 112.55150 | 31513 ft | 476 kts | 234° |
| 2026-04-29 17:20 | 3.22782 | 112.52425 | 31800 ft | 475 kts | 234° |
| 2026-04-29 17:20 | 3.19104 | 112.47057 | 31902 ft | 454 kts | 234° |
| 2026-04-29 17:21 | 3.15584 | 112.41920 | 31899 ft | 445 kts | 234° |
| 2026-04-29 17:21 | 3.12108 | 112.36866 | 31900 ft | 444 kts | 234° |
| 2026-04-29 17:22 | 3.08614 | 112.31777 | 31900 ft | 443 kts | 234° |
| 2026-04-29 17:22 | 3.05126 | 112.26690 | 31901 ft | 443 kts | 234° |
| 2026-04-29 17:23 | 3.02225 | 112.22465 | 31894 ft | 443 kts | 234° |
| 2026-04-29 17:23 | 2.98171 | 112.16558 | 31895 ft | 443 kts | 234° |
| 2026-04-29 17:24 | 2.94685 | 112.11478 | 31888 ft | 442 kts | 233° |
| 2026-04-29 17:24 | 2.91199 | 112.06412 | 31893 ft | 442 kts | 233° |
| 2026-04-29 17:25 | 2.87450 | 112.01567 | 31888 ft | 440 kts | 226° |
| 2026-04-29 17:25 | 2.83395 | 111.97041 | 31884 ft | 440 kts | 226° |
| 2026-04-29 17:26 | 2.79305 | 111.92484 | 31884 ft | 440 kts | 226° |
| 2026-04-29 17:26 | 2.75904 | 111.88693 | 31885 ft | 441 kts | 226° |
| 2026-04-29 17:27 | 2.71116 | 111.83353 | 31885 ft | 441 kts | 226° |
| 2026-04-29 17:27 | 2.67047 | 111.78815 | 31883 ft | 441 kts | 226° |
| 2026-04-29 17:28 | 2.62922 | 111.74217 | 31471 ft | 450 kts | 226° |
| 2026-04-29 17:28 | 2.61537 | 111.72673 | 31029 ft | 451 kts | 226° |
| 2026-04-29 17:28 | 2.58744 | 111.69559 | 30261 ft | 448 kts | 226° |
| 2026-04-29 17:29 | 2.57371 | 111.68025 | 29915 ft | 446 kts | 226° |
| 2026-04-29 17:29 | 2.54610 | 111.64943 | 29101 ft | 443 kts | 226° |
| 2026-04-29 17:29 | 2.53256 | 111.63432 | 28783 ft | 439 kts | 226° |
| 2026-04-29 17:29 | 2.51225 | 111.61166 | 28231 ft | 436 kts | 226° |
| 2026-04-29 17:30 | 2.48563 | 111.58199 | 27610 ft | 429 kts | 226° |
| 2026-04-29 17:30 | 2.47221 | 111.56703 | 27284 ft | 427 kts | 226° |
| 2026-04-29 17:30 | 2.45245 | 111.54502 | 26803 ft | 424 kts | 226° |
| 2026-04-29 17:30 | 2.43285 | 111.52318 | 26314 ft | 421 kts | 226° |
| 2026-04-29 17:31 | 2.41361 | 111.50175 | 25826 ft | 419 kts | 226° |
| 2026-04-29 17:31 | 2.39419 | 111.48013 | 25326 ft | 417 kts | 226° |
| 2026-04-29 17:31 | 2.37483 | 111.45855 | 24804 ft | 416 kts | 226° |
| 2026-04-29 17:31 | 2.35560 | 111.43710 | 24389 ft | 413 kts | 226° |
| 2026-04-29 17:32 | 2.33640 | 111.41567 | 23906 ft | 411 kts | 226° |
| 2026-04-29 17:32 | 2.31741 | 111.39453 | 23508 ft | 407 kts | 225° |
| 2026-04-29 17:32 | 2.29686 | 111.37528 | 22990 ft | 404 kts | 220° |
| 2026-04-29 17:32 | 2.27600 | 111.35667 | 22492 ft | 401 kts | 220° |
| 2026-04-29 17:33 | 2.25530 | 111.33813 | 22032 ft | 398 kts | 220° |
| 2026-04-29 17:33 | 2.23508 | 111.31995 | 21583 ft | 395 kts | 220° |
| 2026-04-29 17:33 | 2.21476 | 111.30163 | 21117 ft | 390 kts | 220° |
| 2026-04-29 17:33 | 2.19473 | 111.28357 | 20335 ft | 385 kts | 220° |
| 2026-04-29 17:34 | 2.17504 | 111.26584 | 19785 ft | 374 kts | 220° |
| 2026-04-29 17:34 | 2.15587 | 111.24861 | 19351 ft | 370 kts | 220° |
| 2026-04-29 17:34 | 2.13672 | 111.23140 | 18894 ft | 370 kts | 220° |
| 2026-04-29 17:34 | 2.11755 | 111.21419 | 18464 ft | 370 kts | 220° |
| 2026-04-29 17:35 | 2.08572 | 111.18562 | 17676 ft | 369 kts | 220° |
| 2026-04-29 17:35 | 2.06054 | 111.16299 | 17103 ft | 366 kts | 220° |
| 2026-04-29 17:35 | 2.04164 | 111.14601 | 16675 ft | 364 kts | 220° |
| 2026-04-29 17:36 | 2.02281 | 111.12909 | 16235 ft | 363 kts | 220° |
| 2026-04-29 17:36 | 2.00410 | 111.11228 | 15822 ft | 361 kts | 220° |
| 2026-04-29 17:36 | 1.98552 | 111.09557 | 15473 ft | 358 kts | 220° |
| 2026-04-29 17:36 | 1.96700 | 111.07891 | 15071 ft | 356 kts | 220° |
| 2026-04-29 17:37 | 1.94861 | 111.06236 | 14648 ft | 355 kts | 220° |
| 2026-04-29 17:37 | 1.93035 | 111.04592 | 14234 ft | 354 kts | 220° |
| 2026-04-29 17:37 | 1.91216 | 111.02957 | 13957 ft | 349 kts | 220° |
| 2026-04-29 17:37 | 1.89439 | 111.01361 | 13544 ft | 348 kts | 220° |
| 2026-04-29 17:38 | 1.87641 | 110.99749 | 13114 ft | 346 kts | 220° |
| 2026-04-29 17:38 | 1.85854 | 110.98148 | 12694 ft | 344 kts | 220° |
| 2026-04-29 17:38 | 1.84075 | 110.96553 | 12278 ft | 342 kts | 220° |
| 2026-04-29 17:38 | 1.82309 | 110.94969 | 11866 ft | 340 kts | 220° |
| 2026-04-29 17:39 | 1.80554 | 110.93394 | 11462 ft | 338 kts | 220° |
| 2026-04-29 17:39 | 1.78808 | 110.91825 | 11058 ft | 336 kts | 220° |
| 2026-04-29 17:39 | 1.77076 | 110.90268 | 10631 ft | 335 kts | 220° |
| 2026-04-29 17:39 | 1.75349 | 110.88717 | 10297 ft | 331 kts | 220° |
| 2026-04-29 17:40 | 1.73712 | 110.87157 | 9912 ft | 330 kts | 228° |
| 2026-04-29 17:40 | 1.72450 | 110.85286 | 9763 ft | 320 kts | 239° |
| 2026-04-29 17:40 | 1.71345 | 110.83388 | 9492 ft | 313 kts | 239° |
| 2026-04-29 17:40 | 1.70254 | 110.81527 | 9016 ft | 309 kts | 239° |
| 2026-04-29 17:41 | 1.69172 | 110.79682 | 8523 ft | 306 kts | 239° |
| 2026-04-29 17:41 | 1.68103 | 110.77858 | 7970 ft | 302 kts | 239° |
| 2026-04-29 17:41 | 1.67045 | 110.76057 | 7361 ft | 301 kts | 239° |
| 2026-04-29 17:41 | 1.65992 | 110.74261 | 7011 ft | 298 kts | 239° |
| 2026-04-29 17:42 | 1.64951 | 110.72485 | 6641 ft | 294 kts | 239° |
| 2026-04-29 17:42 | 1.63938 | 110.70759 | 6034 ft | 290 kts | 239° |
| 2026-04-29 17:42 | 1.62917 | 110.69017 | 5609 ft | 289 kts | 240° |
| 2026-04-29 17:42 | 1.61904 | 110.67298 | 5226 ft | 286 kts | 238° |
| 2026-04-29 17:43 | 1.60852 | 110.65638 | 4986 ft | 277 kts | 242° |
| 2026-04-29 17:43 | 1.60084 | 110.63946 | 4974 ft | 258 kts | 249° |
| 2026-04-29 17:43 | 1.59463 | 110.62330 | 4983 ft | 241 kts | 250° |
| 2026-04-29 17:43 | 1.58862 | 110.60786 | 4822 ft | 236 kts | 249° |
| 2026-04-29 17:44 | 1.58263 | 110.59274 | 4563 ft | 233 kts | 249° |
| 2026-04-29 17:44 | 1.57666 | 110.57772 | 4264 ft | 232 kts | 249° |
| 2026-04-29 17:44 | 1.57081 | 110.56299 | 3973 ft | 230 kts | 249° |
| 2026-04-29 17:44 | 1.56492 | 110.54817 | 3681 ft | 229 kts | 249° |
| 2026-04-29 17:45 | 1.55913 | 110.53360 | 3399 ft | 220 kts | 249° |
| 2026-04-29 17:45 | 1.55363 | 110.51976 | 3121 ft | 208 kts | 250° |
| 2026-04-29 17:45 | 1.54841 | 110.50661 | 2893 ft | 197 kts | 250° |
| 2026-04-29 17:45 | 1.54350 | 110.49425 | 2621 ft | 186 kts | 250° |
| 2026-04-29 17:46 | 1.53887 | 110.48261 | 2395 ft | 175 kts | 250° |
| 2026-04-29 17:46 | 1.53452 | 110.47166 | 2162 ft | 163 kts | 250° |
| 2026-04-29 17:46 | 1.53049 | 110.46152 | 1964 ft | 152 kts | 250° |
| 2026-04-29 17:46 | 1.52672 | 110.45201 | 1783 ft | 147 kts | 250° |
| 2026-04-29 17:47 | 1.52299 | 110.44261 | 1637 ft | 144 kts | 250° |
| 2026-04-29 17:47 | 1.51933 | 110.43340 | 1427 ft | 142 kts | 250° |
| 2026-04-29 17:47 | 1.51571 | 110.42428 | 1242 ft | 141 kts | 250° |
| 2026-04-29 17:47 | 1.51211 | 110.41522 | 1058 ft | 140 kts | 250° |
| 2026-04-29 17:48 | 1.50852 | 110.40617 | 888 ft | 140 kts | 249° |
| 2026-04-29 17:48 | 1.50488 | 110.39709 | 668 ft | 140 kts | 249° |
| 2026-04-29 17:48 | 1.50128 | 110.38804 | 485 ft | 140 kts | 248° |
| 2026-04-29 17:48 | 1.49767 | 110.37893 | 300 ft | 141 kts | 248° |
| 2026-04-29 17:49 | 1.49410 | 110.36998 | 140 ft | 141 kts | 248° |
| 2026-04-29 17:49 | 1.49065 | 110.36119 | 59 ft | 119 kts | 248° |
| 2026-04-29 17:49 | 1.48824 | 110.35519 | 76 ft | 68 kts | 248° |
| 2026-04-29 17:49 | 1.48694 | 110.35191 | 73 ft | 43 kts | 248° |
| 2026-04-29 17:50 | 1.48607 | 110.34965 | 76 ft | 29 kts | 255° |
| 2026-04-29 17:50 | 1.48606 | 110.34797 | 70 ft | 15 kts | 280° |
| 2026-04-29 17:50 | 1.48623 | 110.34697 | 78 ft | 14 kts | 279° |
| 2026-04-29 17:50 | 1.48640 | 110.34607 | 75 ft | 13 kts | 294° |
| 2026-04-29 17:51 | 1.48697 | 110.34551 | 76 ft | 11 kts | 282° |
| 2026-04-29 17:51 | 1.48676 | 110.34488 | 75 ft | 9 kts | 248° |
| 2026-04-29 17:51 | 1.48654 | 110.34433 | 78 ft | 8 kts | 248° |
| 2026-04-29 17:51 | 1.48647 | 110.34385 | 78 ft | 6 kts | 293° |
| 2026-04-29 17:52 | 1.48680 | 110.34365 | 78 ft | 4 kts | 335° |
| 2026-04-29 17:52 | 1.48694 | 110.34359 | 71 ft | 3 kts | 338° |
| 2026-04-29 17:52 | 1.48708 | 110.34353 | 75 ft | 0 kts | 338° |